createdAt,value
2018-06-19T00:01:48.441Z,0.00
2018-06-19T00:02:48.415Z,0.00
2018-06-19T00:04:41.644Z,0.00
2018-06-19T00:05:41.474Z,0.00
2018-06-19T00:07:34.411Z,0.00
2018-06-19T00:08:34.380Z,0.00
2018-06-19T00:10:27.225Z,0.00
2018-06-19T00:11:27.192Z,0.00
2018-06-19T00:13:19.999Z,0.00
2018-06-19T00:14:19.962Z,0.00
2018-06-19T00:16:13.084Z,0.00
2018-06-19T00:17:13.010Z,0.00
2018-06-19T00:19:05.958Z,0.00
2018-06-19T00:20:05.920Z,0.00
2018-06-19T00:21:58.907Z,0.00
2018-06-19T00:22:58.865Z,0.00
2018-06-19T00:24:51.669Z,0.00
2018-06-19T00:25:51.640Z,0.00
2018-06-19T00:27:44.632Z,0.00
2018-06-19T00:28:44.573Z,0.00
2018-06-19T00:30:37.541Z,0.00
2018-06-19T00:31:37.490Z,0.00
2018-06-19T00:33:30.465Z,0.00
2018-06-19T00:34:30.426Z,0.00
2018-06-19T00:36:23.285Z,0.00
2018-06-19T00:37:23.225Z,0.00
2018-06-19T00:39:16.102Z,0.00
2018-06-19T00:40:16.000Z,0.00
2018-06-19T00:42:08.995Z,0.00
2018-06-19T00:43:08.925Z,0.00
2018-06-19T00:45:01.875Z,0.00
2018-06-19T00:46:01.841Z,0.00
2018-06-19T00:47:54.956Z,0.00
2018-06-19T00:48:54.875Z,0.00
2018-06-19T00:50:47.835Z,0.00
2018-06-19T00:51:47.800Z,0.00
2018-06-19T00:53:40.759Z,0.00
2018-06-19T00:54:40.723Z,0.00
2018-06-19T00:56:33.880Z,0.00
2018-06-19T00:57:33.767Z,0.00
2018-06-19T00:59:26.611Z,0.00
2018-06-19T01:00:26.536Z,0.00
2018-06-19T01:02:19.367Z,0.00
2018-06-19T01:03:19.322Z,0.00
2018-06-19T01:05:12.272Z,0.00
2018-06-19T01:06:12.255Z,0.00
2018-06-19T01:08:05.291Z,0.00
2018-06-19T01:09:05.238Z,0.00
2018-06-19T01:10:58.181Z,0.00
2018-06-19T01:11:58.143Z,0.00
2018-06-19T01:13:51.122Z,0.00
2018-06-19T01:14:51.068Z,0.00
2018-06-19T01:16:43.878Z,0.00
2018-06-19T01:17:43.847Z,0.00
2018-06-19T01:19:36.808Z,0.00
2018-06-19T01:20:36.752Z,0.00
2018-06-19T01:22:29.735Z,0.00
2018-06-19T01:23:29.671Z,0.00
2018-06-19T01:25:22.642Z,0.00
2018-06-19T01:26:22.617Z,0.00
2018-06-19T01:28:15.606Z,0.00
2018-06-19T01:29:15.557Z,0.00
2018-06-19T01:31:08.397Z,0.00
2018-06-19T01:32:08.336Z,0.00
2018-06-19T01:34:01.307Z,0.00
2018-06-19T01:35:01.301Z,0.00
2018-06-19T01:36:54.393Z,0.00
2018-06-19T01:37:54.365Z,0.00
2018-06-19T01:39:47.332Z,0.00
2018-06-19T01:40:47.261Z,0.00
2018-06-19T01:42:40.207Z,0.00
2018-06-19T01:43:40.187Z,0.00
2018-06-19T01:45:33.337Z,0.00
2018-06-19T01:46:33.267Z,0.00
2018-06-19T01:48:26.259Z,0.00
2018-06-19T01:49:26.193Z,0.00
2018-06-19T01:51:19.192Z,0.00
2018-06-19T01:52:19.163Z,0.00
2018-06-19T01:54:11.988Z,0.00
2018-06-19T01:55:11.943Z,0.00
2018-06-19T01:57:04.909Z,0.00
2018-06-19T01:58:04.862Z,0.00
2018-06-19T01:59:57.854Z,0.00
2018-06-19T02:00:57.807Z,0.00
2018-06-19T02:02:50.997Z,0.00
2018-06-19T02:03:50.934Z,0.00
2018-06-19T02:05:43.904Z,0.00
2018-06-19T02:06:43.848Z,0.00
2018-06-19T02:08:36.793Z,0.00
2018-06-19T02:09:36.774Z,0.00
2018-06-19T02:11:29.927Z,0.00
2018-06-19T02:12:29.808Z,0.00
2018-06-19T02:14:22.781Z,0.00
2018-06-19T02:15:22.745Z,0.00
2018-06-19T02:17:15.685Z,0.00
2018-06-19T02:18:15.655Z,0.00
2018-06-19T02:20:08.548Z,0.00
2018-06-19T02:21:08.496Z,0.00
2018-06-19T02:23:01.476Z,0.00
2018-06-19T02:24:01.439Z,0.00
2018-06-19T02:25:54.273Z,0.00
2018-06-19T02:26:54.214Z,0.00
2018-06-19T02:28:47.164Z,0.00
2018-06-19T02:29:47.128Z,0.00
2018-06-19T02:31:40.182Z,0.00
2018-06-19T02:32:40.037Z,0.00
2018-06-19T02:34:33.011Z,0.00
2018-06-19T02:35:32.981Z,0.00
2018-06-19T02:37:25.955Z,0.00
2018-06-19T02:38:25.899Z,0.00
2018-06-19T02:40:19.159Z,0.00
2018-06-19T02:41:18.955Z,0.00
2018-06-19T02:43:11.904Z,0.00
2018-06-19T02:44:11.873Z,0.00
2018-06-19T02:46:04.834Z,4.00
2018-06-19T02:47:04.800Z,4.00
2018-06-19T02:48:57.889Z,0.00
2018-06-19T02:49:57.865Z,4.00
2018-06-19T02:51:50.860Z,4.00
2018-06-19T02:52:50.819Z,4.00
2018-06-19T02:54:43.969Z,8.00
2018-06-19T02:55:43.931Z,4.00
2018-06-19T02:57:36.904Z,8.00
2018-06-19T02:58:36.855Z,8.00
2018-06-19T03:00:29.716Z,12.00
2018-06-19T03:01:29.621Z,12.00
2018-06-19T03:03:22.601Z,16.00
2018-06-19T03:04:22.554Z,20.00
2018-06-19T03:06:15.415Z,24.00
2018-06-19T03:07:15.376Z,28.00
2018-06-19T03:09:08.347Z,32.00
2018-06-19T03:10:08.294Z,36.00
2018-06-19T03:12:01.265Z,48.00
2018-06-19T03:13:01.204Z,52.00
2018-06-19T03:14:54.162Z,60.00
2018-06-19T03:15:54.130Z,68.00
2018-06-19T03:17:46.965Z,76.00
2018-06-19T03:18:46.901Z,84.00
2018-06-19T03:20:39.888Z,96.00
2018-06-19T03:21:39.864Z,104.00
2018-06-19T03:23:32.819Z,116.00
2018-06-19T03:24:32.809Z,128.00
2018-06-19T03:26:25.880Z,144.00
2018-06-19T03:27:25.846Z,148.00
2018-06-19T03:29:18.685Z,164.00
2018-06-19T03:30:18.741Z,172.00
2018-06-19T03:32:11.438Z,192.00
2018-06-19T03:33:11.413Z,200.00
2018-06-19T03:35:04.370Z,220.00
2018-06-19T03:36:04.317Z,232.00
2018-06-19T03:37:57.132Z,252.00
2018-06-19T03:38:57.096Z,260.00
2018-06-19T03:40:49.942Z,280.00
2018-06-19T03:41:49.891Z,292.00
2018-06-19T03:43:42.702Z,320.00
2018-06-19T03:44:42.662Z,328.00
2018-06-19T03:46:35.645Z,352.00
2018-06-19T03:47:35.578Z,360.00
2018-06-19T03:49:28.542Z,388.00
2018-06-19T03:50:28.487Z,400.00
2018-06-19T03:52:21.298Z,412.00
2018-06-19T03:53:21.277Z,424.00
2018-06-19T03:55:14.248Z,440.00
2018-06-19T03:56:14.197Z,456.00
2018-06-19T03:58:07.162Z,488.00
2018-06-19T03:59:07.127Z,484.00
2018-06-19T04:00:59.973Z,500.00
2018-06-19T04:01:59.912Z,516.00
2018-06-19T04:03:52.737Z,536.00
2018-06-19T04:04:52.697Z,548.00
2018-06-19T04:06:45.540Z,560.00
2018-06-19T04:07:45.473Z,572.00
2018-06-19T04:09:38.476Z,608.00
2018-06-19T04:10:38.412Z,612.00
2018-06-19T04:12:31.387Z,640.00
2018-06-19T04:13:31.413Z,664.00
2018-06-19T04:15:24.543Z,672.00
2018-06-19T04:16:24.413Z,704.00
2018-06-19T04:18:17.378Z,728.00
2018-06-19T04:19:17.338Z,752.00
2018-06-19T04:21:10.305Z,848.00
2018-06-19T04:22:10.263Z,936.00
2018-06-19T04:24:03.414Z,964.00
2018-06-19T04:25:03.248Z,888.00
2018-06-19T04:26:56.208Z,824.00
2018-06-19T04:27:56.164Z,916.00
2018-06-19T04:29:49.136Z,904.00
2018-06-19T04:30:49.094Z,1024.00
2018-06-19T04:32:42.302Z,1060.00
2018-06-19T04:33:42.163Z,1076.00
2018-06-19T04:35:35.119Z,1228.00
2018-06-19T04:36:35.103Z,1168.00
2018-06-19T04:38:28.069Z,1444.00
2018-06-19T04:39:28.027Z,1544.00
2018-06-19T04:41:20.905Z,1580.00
2018-06-19T04:42:20.850Z,1584.00
2018-06-19T04:44:13.803Z,1300.00
2018-06-19T04:45:13.778Z,1124.00
2018-06-19T04:47:06.748Z,948.00
2018-06-19T04:48:06.694Z,852.00
2018-06-19T04:49:59.672Z,764.00
2018-06-19T04:50:59.637Z,728.00
2018-06-19T04:52:52.468Z,740.00
2018-06-19T04:53:52.403Z,728.00
2018-06-19T04:55:45.223Z,696.00
2018-06-19T04:56:45.195Z,692.00
2018-06-19T04:58:38.172Z,620.00
2018-06-19T04:59:38.122Z,600.00
2018-06-19T05:01:31.096Z,612.00
2018-06-19T05:02:31.059Z,596.00
2018-06-19T05:04:24.900Z,592.00
2018-06-19T05:05:24.849Z,596.00
2018-06-19T05:07:17.821Z,604.00
2018-06-19T05:08:17.771Z,584.00
2018-06-19T05:10:10.718Z,580.00
2018-06-19T05:11:10.700Z,564.00
2018-06-19T05:13:03.889Z,572.00
2018-06-19T05:14:03.784Z,572.00
2018-06-19T05:15:56.738Z,636.00
2018-06-19T05:16:56.709Z,656.00
2018-06-19T05:18:49.713Z,692.00
2018-06-19T05:19:49.672Z,656.00
2018-06-19T05:21:42.748Z,596.00
2018-06-19T05:22:42.719Z,636.00
2018-06-19T05:24:35.708Z,668.00
2018-06-19T05:25:35.650Z,728.00
2018-06-19T05:27:28.675Z,824.00
2018-06-19T05:28:28.646Z,864.00
2018-06-19T05:30:21.649Z,880.00
2018-06-19T05:31:21.599Z,852.00
2018-06-19T05:33:14.417Z,872.00
2018-06-19T05:34:14.389Z,920.00
2018-06-19T05:36:07.370Z,1008.00
2018-06-19T05:37:07.320Z,1024.00
2018-06-19T05:39:00.481Z,1072.00
2018-06-19T05:40:00.397Z,1124.00
2018-06-19T05:41:53.383Z,1136.00
2018-06-19T05:42:53.332Z,1080.00
2018-06-19T05:44:46.300Z,1052.00
2018-06-19T05:45:46.271Z,1060.00
2018-06-19T05:47:39.106Z,1192.00
2018-06-19T05:48:39.061Z,1276.00
2018-06-19T05:50:32.017Z,1292.00
2018-06-19T05:51:31.981Z,1272.00
2018-06-19T05:53:24.961Z,1176.00
2018-06-19T05:54:24.900Z,1076.00
2018-06-19T05:56:17.887Z,956.00
2018-06-19T05:57:17.833Z,952.00
2018-06-19T05:59:10.651Z,1112.00
2018-06-19T06:00:10.646Z,1184.00
2018-06-19T06:02:03.591Z,1292.00
2018-06-19T06:03:03.541Z,1296.00
2018-06-19T06:04:56.498Z,1340.00
2018-06-19T06:05:56.521Z,1320.00
2018-06-19T06:07:49.717Z,1268.00
2018-06-19T06:08:49.560Z,1252.00
2018-06-19T06:10:42.590Z,1288.00
2018-06-19T06:11:42.530Z,1272.00
2018-06-19T06:13:35.496Z,1320.00
2018-06-19T06:14:35.461Z,1440.00
2018-06-19T06:16:28.492Z,1668.00
2018-06-19T06:17:28.335Z,1716.00
2018-06-19T06:19:21.341Z,1740.00
2018-06-19T06:20:21.301Z,1868.00
2018-06-19T06:22:14.282Z,1900.00
2018-06-19T06:23:14.228Z,1924.00
2018-06-19T06:25:07.331Z,2052.00
2018-06-19T06:26:07.297Z,2048.00
2018-06-19T06:28:00.277Z,2112.00
2018-06-19T06:29:00.227Z,2160.00
2018-06-19T06:30:53.179Z,2288.00
2018-06-19T06:31:53.154Z,2200.00
2018-06-19T06:33:46.292Z,2088.00
2018-06-19T06:34:46.222Z,2084.00
2018-06-19T06:36:39.206Z,2012.00
2018-06-19T06:37:39.144Z,2052.00
2018-06-19T06:39:32.114Z,2116.00
2018-06-19T06:40:32.089Z,2252.00
2018-06-19T06:42:24.907Z,2488.00
2018-06-19T06:43:24.876Z,2544.00
2018-06-19T06:45:17.837Z,2532.00
2018-06-19T06:46:17.797Z,2520.00
2018-06-19T06:48:10.778Z,2620.00
2018-06-19T06:49:10.731Z,2684.00
2018-06-19T06:51:03.837Z,2768.00
2018-06-19T06:52:03.790Z,2688.00
2018-06-19T06:53:56.786Z,2644.00
2018-06-19T06:54:56.728Z,2692.00
2018-06-19T06:56:49.549Z,2920.00
2018-06-19T06:57:49.535Z,2972.00
2018-06-19T06:59:42.487Z,2896.00
2018-06-19T07:00:42.447Z,2648.00
2018-06-19T07:02:35.265Z,2648.00
2018-06-19T07:03:35.228Z,2728.00
2018-06-19T07:05:28.238Z,2760.00
2018-06-19T07:06:28.191Z,2776.00
2018-06-19T07:08:21.169Z,2772.00
2018-06-19T07:09:21.128Z,2712.00
2018-06-19T07:11:14.341Z,2560.00
2018-06-19T07:12:14.227Z,2552.00
2018-06-19T07:14:07.191Z,2496.00
2018-06-19T07:15:07.167Z,2512.00
2018-06-19T07:17:00.154Z,2564.00
2018-06-19T07:18:00.085Z,2692.00
2018-06-19T07:19:53.199Z,2764.00
2018-06-19T07:20:53.130Z,2924.00
2018-06-19T07:22:46.122Z,3152.00
2018-06-19T07:23:46.074Z,3228.00
2018-06-19T07:25:39.073Z,3044.00
2018-06-19T07:26:39.008Z,2972.00
2018-06-19T07:28:31.829Z,3060.00
2018-06-19T07:29:31.798Z,2964.00
2018-06-19T07:31:24.780Z,2876.00
2018-06-19T07:32:24.725Z,2836.00
2018-06-19T07:34:17.560Z,2636.00
2018-06-19T07:35:17.522Z,2556.00
2018-06-19T07:37:10.508Z,2300.00
2018-06-19T07:38:10.584Z,2132.00
2018-06-19T07:40:03.315Z,2184.00
2018-06-19T07:41:03.290Z,2384.00
2018-06-19T07:42:56.274Z,2732.00
2018-06-19T07:43:56.295Z,2988.00
2018-06-19T07:45:49.176Z,3284.00
2018-06-19T07:46:49.162Z,3296.00
2018-06-19T07:48:42.337Z,3516.00
2018-06-19T07:49:42.322Z,3472.00
2018-06-19T07:51:35.189Z,3700.00
2018-06-19T07:52:35.151Z,3692.00
2018-06-19T07:54:28.126Z,3684.00
2018-06-19T07:55:28.112Z,3664.00
2018-06-19T07:57:21.294Z,3600.00
2018-06-19T07:58:21.163Z,3572.00
2018-06-19T08:00:14.149Z,3564.00
2018-06-19T08:01:14.099Z,3620.00
2018-06-19T08:03:07.065Z,3680.00
2018-06-19T08:04:07.028Z,3712.00
2018-06-19T08:05:59.848Z,4064.00
2018-06-19T08:06:59.819Z,4224.00
2018-06-19T08:08:52.788Z,3856.00
2018-06-19T08:09:52.744Z,3676.00
2018-06-19T08:11:45.701Z,3236.00
2018-06-19T08:12:45.714Z,3224.00
2018-06-19T08:14:38.648Z,2956.00
2018-06-19T08:15:38.594Z,3008.00
2018-06-19T08:17:31.425Z,2740.00
2018-06-19T08:18:31.374Z,2604.00
2018-06-19T08:20:24.339Z,2716.00
2018-06-19T08:21:24.317Z,2824.00
2018-06-19T08:23:17.288Z,2780.00
2018-06-19T08:24:17.238Z,2568.00
2018-06-19T08:26:10.238Z,2516.00
2018-06-19T08:27:10.194Z,2216.00
2018-06-19T08:29:03.156Z,1992.00
2018-06-19T08:30:03.237Z,1852.00
2018-06-19T08:31:56.107Z,1736.00
2018-06-19T08:32:56.061Z,1796.00
2018-06-19T08:34:49.339Z,1980.00
2018-06-19T08:35:49.152Z,2088.00
2018-06-19T08:37:42.110Z,2324.00
2018-06-19T08:38:42.069Z,2540.00
2018-06-19T08:40:35.052Z,2600.00
2018-06-19T08:41:35.001Z,2260.00
2018-06-19T08:43:28.102Z,2444.00
2018-06-19T08:44:28.068Z,2720.00
2018-06-19T08:46:21.042Z,3208.00
2018-06-19T08:47:21.017Z,3200.00
2018-06-19T08:49:13.820Z,3188.00
2018-06-19T08:50:13.823Z,3332.00
2018-06-19T08:52:06.973Z,3008.00
2018-06-19T08:53:06.871Z,2668.00
2018-06-19T08:54:59.811Z,2552.00
2018-06-19T08:55:59.772Z,2752.00
2018-06-19T08:57:52.613Z,2880.00
2018-06-19T08:58:52.570Z,3004.00
2018-06-19T09:00:45.544Z,3160.00
2018-06-19T09:01:45.502Z,2928.00
2018-06-19T09:03:38.543Z,3456.00
2018-06-19T09:04:38.452Z,3384.00
2018-06-19T09:06:31.429Z,3532.00
2018-06-19T09:07:31.394Z,3536.00
2018-06-19T09:09:24.423Z,2960.00
2018-06-19T09:10:24.371Z,2888.00
2018-06-19T09:12:17.197Z,2904.00
2018-06-19T09:13:17.217Z,2832.00
2018-06-19T09:15:10.139Z,3308.00
2018-06-19T09:16:10.102Z,3832.00
2018-06-19T09:18:03.108Z,4084.00
2018-06-19T09:19:03.057Z,4364.00
2018-06-19T09:20:56.221Z,5036.00
2018-06-19T09:21:56.153Z,5196.00
2018-06-19T09:23:49.147Z,4772.00
2018-06-19T09:24:49.086Z,4608.00
2018-06-19T09:26:42.070Z,4704.00
2018-06-19T09:27:42.029Z,4948.00
2018-06-19T09:29:34.972Z,5136.00
2018-06-19T09:30:34.852Z,4972.00
2018-06-19T09:32:27.823Z,3996.00
2018-06-19T09:33:27.787Z,4128.00
2018-06-19T09:35:20.750Z,4152.00
2018-06-19T09:36:20.709Z,4416.00
2018-06-19T09:38:13.939Z,3680.00
2018-06-19T09:39:13.771Z,3512.00
2018-06-19T09:41:06.740Z,4072.00
2018-06-19T09:42:06.698Z,4888.00
2018-06-19T09:43:59.719Z,5056.00
2018-06-19T09:44:59.665Z,4940.00
2018-06-19T09:46:52.494Z,5552.00
2018-06-19T09:47:52.454Z,6516.00
2018-06-19T09:49:45.439Z,8128.00
2018-06-19T09:50:45.398Z,8548.00
2018-06-19T09:52:38.363Z,9064.00
2018-06-19T09:53:38.375Z,8436.00
2018-06-19T09:55:31.314Z,6352.00
2018-06-19T09:56:31.268Z,4760.00
2018-06-19T09:58:24.262Z,4752.00
2018-06-19T09:59:24.257Z,3348.00
2018-06-19T10:01:17.051Z,3028.00
2018-06-19T10:02:16.993Z,3360.00
2018-06-19T10:04:09.981Z,3132.00
2018-06-19T10:05:09.932Z,3240.00
2018-06-19T10:07:03.145Z,4420.00
2018-06-19T10:08:03.024Z,3904.00
2018-06-19T10:09:56.009Z,2616.00
2018-06-19T10:10:55.964Z,2584.00
2018-06-19T10:12:48.934Z,4680.00
2018-06-19T10:13:48.893Z,5880.00
2018-06-19T10:15:41.745Z,5512.00
2018-06-19T10:16:41.688Z,5588.00
2018-06-19T10:18:34.648Z,4260.00
2018-06-19T10:19:34.672Z,3796.00
2018-06-19T10:21:27.617Z,2740.00
2018-06-19T10:22:27.574Z,2464.00
2018-06-19T10:24:20.674Z,2096.00
2018-06-19T10:25:20.648Z,2264.00
2018-06-19T10:27:13.634Z,3408.00
2018-06-19T10:28:13.593Z,3680.00
2018-06-19T10:30:06.707Z,4548.00
2018-06-19T10:31:06.640Z,5232.00
2018-06-19T10:32:59.515Z,6192.00
2018-06-19T10:33:59.481Z,6088.00
2018-06-19T10:35:52.478Z,6016.00
2018-06-19T10:36:52.430Z,5892.00
2018-06-19T10:38:46.379Z,4572.00
2018-06-19T10:39:46.350Z,4364.00
2018-06-19T10:41:39.525Z,5200.00
2018-06-19T10:42:39.411Z,5096.00
2018-06-19T10:44:32.387Z,4660.00
2018-06-19T10:45:32.352Z,4160.00
2018-06-19T10:47:25.340Z,3892.00
2018-06-19T10:48:25.300Z,4532.00
2018-06-19T10:50:18.112Z,5236.00
2018-06-19T10:51:18.085Z,4460.00
2018-06-19T10:53:11.057Z,4180.00
2018-06-19T10:54:11.022Z,4144.00
2018-06-19T10:56:03.967Z,4132.00
2018-06-19T10:57:04.045Z,4000.00
2018-06-19T10:58:56.940Z,4108.00
2018-06-19T10:59:56.869Z,4048.00
2018-06-19T11:01:49.850Z,4180.00
2018-06-19T11:02:49.804Z,4296.00
2018-06-19T11:04:42.776Z,4328.00
2018-06-19T11:05:42.744Z,4356.00
2018-06-19T11:07:35.721Z,4252.00
2018-06-19T11:08:35.667Z,4308.00
2018-06-19T11:10:28.493Z,4684.00
2018-06-19T11:11:28.465Z,5036.00
2018-06-19T11:13:21.461Z,5212.00
2018-06-19T11:14:21.413Z,5220.00
2018-06-19T11:16:14.393Z,5212.00
2018-06-19T11:17:14.367Z,5360.00
2018-06-19T11:19:07.591Z,5500.00
2018-06-19T11:20:07.575Z,5552.00
2018-06-19T11:22:00.423Z,5372.00
2018-06-19T11:23:00.396Z,5240.00
2018-06-19T11:24:53.363Z,5448.00
2018-06-19T11:25:53.316Z,5524.00
2018-06-19T11:27:46.163Z,5720.00
2018-06-19T11:28:46.117Z,5828.00
2018-06-19T11:30:39.212Z,6028.00
2018-06-19T11:31:39.148Z,6156.00
2018-06-19T11:33:32.149Z,6580.00
2018-06-19T11:34:32.122Z,6688.00
2018-06-19T11:36:25.283Z,6136.00
2018-06-19T11:37:25.245Z,6092.00
2018-06-19T11:39:18.260Z,6332.00
2018-06-19T11:40:18.176Z,6468.00
2018-06-19T11:42:11.175Z,7060.00
2018-06-19T11:43:11.122Z,7176.00
2018-06-19T11:45:04.090Z,6680.00
2018-06-19T11:46:03.964Z,6712.00
2018-06-19T11:47:56.952Z,6008.00
2018-06-19T11:48:56.957Z,5712.00
2018-06-19T11:50:49.928Z,5140.00
2018-06-19T11:51:49.838Z,4584.00
2018-06-19T11:53:43.293Z,4660.00
2018-06-19T11:54:43.023Z,4672.00
2018-06-19T11:56:35.916Z,4268.00
2018-06-19T11:57:35.913Z,4012.00
2018-06-19T11:59:28.854Z,3988.00
2018-06-19T12:00:28.847Z,3952.00
2018-06-19T12:02:21.699Z,4160.00
2018-06-19T12:03:21.644Z,4308.00
2018-06-19T12:05:14.752Z,4060.00
2018-06-19T12:06:14.711Z,3972.00
2018-06-19T12:08:07.672Z,3692.00
2018-06-19T12:09:07.630Z,3676.00
2018-06-19T12:11:00.707Z,3796.00
2018-06-19T12:12:00.682Z,3924.00
2018-06-19T12:13:53.704Z,4388.00
2018-06-19T12:14:53.668Z,4540.00
2018-06-19T12:16:46.847Z,4108.00
2018-06-19T12:17:46.778Z,3660.00
2018-06-19T12:19:39.768Z,4148.00
2018-06-19T12:20:39.709Z,4380.00
2018-06-19T12:22:32.730Z,3456.00
2018-06-19T12:23:32.699Z,3136.00
2018-06-19T12:25:25.627Z,2868.00
2018-06-19T12:26:25.542Z,3052.00
2018-06-19T12:28:18.537Z,3636.00
2018-06-19T12:29:18.499Z,3608.00
2018-06-19T12:31:11.522Z,3028.00
2018-06-19T12:32:11.459Z,2876.00
2018-06-19T12:34:04.624Z,3268.00
2018-06-19T12:35:04.539Z,3476.00
2018-06-19T12:36:57.542Z,3772.00
2018-06-19T12:37:57.515Z,3952.00
2018-06-19T12:39:50.453Z,3872.00
2018-06-19T12:40:50.431Z,3808.00
2018-06-19T12:42:43.373Z,3448.00
2018-06-19T12:43:43.313Z,3212.00
2018-06-19T12:45:36.319Z,3348.00
2018-06-19T12:46:36.292Z,3216.00
2018-06-19T12:48:29.365Z,3104.00
2018-06-19T12:49:29.311Z,3280.00
2018-06-19T12:51:22.170Z,3776.00
2018-06-19T12:52:22.140Z,3800.00
2018-06-19T12:54:15.158Z,3856.00
2018-06-19T12:55:15.077Z,3948.00
2018-06-19T12:57:08.085Z,3760.00
2018-06-19T12:58:08.041Z,3464.00
2018-06-19T13:00:01.166Z,3236.00
2018-06-19T13:01:01.120Z,3232.00
2018-06-19T13:02:54.126Z,3420.00
2018-06-19T13:03:54.085Z,3776.00
2018-06-19T13:05:47.046Z,4564.00
2018-06-19T13:06:47.018Z,4784.00
2018-06-19T13:08:39.905Z,5184.00
2018-06-19T13:09:39.836Z,5400.00
2018-06-19T13:11:32.820Z,5768.00
2018-06-19T13:12:32.792Z,6012.00
2018-06-19T13:14:25.895Z,6284.00
2018-06-19T13:15:25.795Z,6484.00
2018-06-19T13:17:18.933Z,6176.00
2018-06-19T13:18:18.870Z,5428.00
2018-06-19T13:20:11.909Z,4116.00
2018-06-19T13:21:11.859Z,3680.00
2018-06-19T13:23:04.834Z,2744.00
2018-06-19T13:24:04.819Z,2360.00
2018-06-19T13:25:57.826Z,2152.00
2018-06-19T13:26:57.766Z,2196.00
2018-06-19T13:28:50.805Z,2568.00
2018-06-19T13:29:50.746Z,2692.00
2018-06-19T13:31:43.720Z,2756.00
2018-06-19T13:32:43.677Z,2836.00
2018-06-19T13:34:36.687Z,3292.00
2018-06-19T13:35:36.690Z,3888.00
2018-06-19T13:37:30.086Z,5228.00
2018-06-19T13:38:29.754Z,5932.00
2018-06-19T13:40:23.434Z,6696.00
2018-06-19T13:41:23.382Z,6856.00
2018-06-19T13:43:17.271Z,6960.00
2018-06-19T13:44:17.216Z,6772.00
2018-06-19T13:46:10.213Z,5952.00
2018-06-19T13:47:10.195Z,5196.00
2018-06-19T13:49:03.157Z,3288.00
2018-06-19T13:50:03.143Z,2580.00
2018-06-19T13:51:56.286Z,1916.00
2018-06-19T13:52:56.205Z,1696.00
2018-06-19T13:54:49.207Z,1220.00
2018-06-19T13:55:49.164Z,1140.00
2018-06-19T13:57:42.164Z,1352.00
2018-06-19T13:58:42.115Z,1444.00
2018-06-19T14:00:35.207Z,1740.00
2018-06-19T14:01:35.122Z,1704.00
2018-06-19T14:03:28.133Z,1460.00
2018-06-19T14:04:28.087Z,1408.00
2018-06-19T14:06:21.090Z,1368.00
2018-06-19T14:07:21.085Z,1296.00
2018-06-19T14:09:14.068Z,1244.00
2018-06-19T14:10:14.057Z,1212.00
2018-06-19T14:12:07.031Z,1212.00
2018-06-19T14:13:06.976Z,1228.00
2018-06-19T14:14:59.826Z,1216.00
2018-06-19T14:15:59.783Z,1232.00
2018-06-19T14:17:52.943Z,1340.00
2018-06-19T14:18:52.887Z,1424.00
2018-06-19T14:20:47.101Z,1692.00
2018-06-19T14:21:47.048Z,1876.00
2018-06-19T14:23:39.897Z,2220.00
2018-06-19T14:24:39.851Z,2396.00
2018-06-19T14:26:32.849Z,2740.00
2018-06-19T14:27:32.819Z,2940.00
2018-06-19T14:29:25.808Z,3268.00
2018-06-19T14:30:25.748Z,3412.00
2018-06-19T14:32:18.575Z,3660.00
2018-06-19T14:33:18.547Z,3856.00
2018-06-19T14:35:11.401Z,4272.00
2018-06-19T14:36:11.363Z,4504.00
2018-06-19T14:38:04.335Z,4868.00
2018-06-19T14:39:04.363Z,4984.00
2018-06-19T14:40:57.265Z,5140.00
2018-06-19T14:41:57.238Z,5248.00
2018-06-19T14:43:50.444Z,5420.00
2018-06-19T14:44:50.305Z,5596.00
2018-06-19T14:46:43.289Z,6004.00
2018-06-19T14:47:43.248Z,6216.00
2018-06-19T14:49:36.234Z,6584.00
2018-06-19T14:50:36.181Z,6804.00
2018-06-19T14:52:29.096Z,7164.00
2018-06-19T14:53:29.084Z,7116.00
2018-06-19T14:55:22.060Z,7104.00
2018-06-19T14:56:22.018Z,7028.00
2018-06-19T14:58:14.982Z,7040.00
2018-06-19T14:59:14.967Z,7100.00
2018-06-19T15:01:08.124Z,6848.00
2018-06-19T15:02:08.029Z,6788.00
2018-06-19T15:04:00.993Z,6864.00
2018-06-19T15:05:00.974Z,6784.00
2018-06-19T15:06:53.962Z,6492.00
2018-06-19T15:07:53.908Z,6556.00
2018-06-19T15:09:46.988Z,6916.00
2018-06-19T15:10:46.958Z,6856.00
2018-06-19T15:12:39.945Z,6624.00
2018-06-19T15:13:39.884Z,6420.00
2018-06-19T15:15:32.883Z,6136.00
2018-06-19T15:16:32.829Z,6052.00
2018-06-19T15:18:25.701Z,5840.00
2018-06-19T15:19:25.647Z,5692.00
2018-06-19T15:21:18.624Z,5484.00
2018-06-19T15:22:18.586Z,5360.00
2018-06-19T15:24:11.617Z,5128.00
2018-06-19T15:25:11.524Z,5004.00
2018-06-19T15:27:04.724Z,4844.00
2018-06-19T15:28:04.613Z,4756.00
2018-06-19T15:29:57.593Z,4596.00
2018-06-19T15:30:57.565Z,4524.00
2018-06-19T15:32:50.543Z,4480.00
2018-06-19T15:33:50.512Z,4496.00
2018-06-19T15:35:43.364Z,4560.00
2018-06-19T15:36:43.330Z,4584.00
2018-06-19T15:38:36.328Z,4536.00
2018-06-19T15:39:36.284Z,4516.00
2018-06-19T15:41:29.290Z,4516.00
2018-06-19T15:42:29.248Z,4552.00
2018-06-19T15:44:22.358Z,4424.00
2018-06-19T15:45:22.328Z,4364.00
2018-06-19T15:47:15.297Z,4348.00
2018-06-19T15:48:15.261Z,4328.00
2018-06-19T15:50:08.255Z,4256.00
2018-06-19T15:51:08.237Z,4256.00
2018-06-19T15:53:01.104Z,4272.00
2018-06-19T15:54:01.039Z,4204.00
2018-06-19T15:55:53.998Z,4116.00
2018-06-19T15:56:53.968Z,4040.00
2018-06-19T15:58:46.985Z,3784.00
2018-06-19T15:59:46.951Z,3652.00
2018-06-19T16:01:40.105Z,3480.00
2018-06-19T16:02:40.033Z,3424.00
2018-06-19T16:04:32.879Z,3320.00
2018-06-19T16:05:32.829Z,3244.00
2018-06-19T16:07:25.855Z,3192.00
2018-06-19T16:08:25.824Z,3180.00
2018-06-19T16:10:18.660Z,3200.00
2018-06-19T16:11:18.620Z,3168.00
2018-06-19T16:13:11.494Z,3136.00
2018-06-19T16:14:11.402Z,3136.00
2018-06-19T16:16:04.826Z,3116.00
2018-06-19T16:17:04.537Z,3152.00
2018-06-19T16:18:57.512Z,3348.00
2018-06-19T16:19:57.471Z,3412.00
2018-06-19T16:21:50.291Z,3384.00
2018-06-19T16:22:50.268Z,3384.00
2018-06-19T16:24:43.247Z,3392.00
2018-06-19T16:25:43.192Z,3380.00
2018-06-19T16:27:36.180Z,3280.00
2018-06-19T16:28:36.186Z,3204.00
2018-06-19T16:30:29.272Z,3032.00
2018-06-19T16:31:29.208Z,2904.00
2018-06-19T16:33:22.171Z,2628.00
2018-06-19T16:34:22.133Z,2480.00
2018-06-19T16:36:15.117Z,2224.00
2018-06-19T16:37:15.077Z,2132.00
2018-06-19T16:39:07.908Z,1996.00
2018-06-19T16:40:07.867Z,1952.00
2018-06-19T16:42:00.867Z,1896.00
2018-06-19T16:43:00.818Z,1876.00
2018-06-19T16:44:53.782Z,1836.00
2018-06-19T16:45:53.766Z,1840.00
2018-06-19T16:47:46.725Z,1884.00
2018-06-19T16:48:46.682Z,1936.00
2018-06-19T16:50:39.695Z,2060.00
2018-06-19T16:51:39.647Z,2100.00
2018-06-19T16:53:32.630Z,2232.00
2018-06-19T16:54:32.592Z,2284.00
2018-06-19T16:56:25.562Z,2248.00
2018-06-19T16:57:25.527Z,2188.00
2018-06-19T16:59:18.354Z,2132.00
2018-06-19T17:00:18.316Z,2140.00
2018-06-19T17:02:11.306Z,2080.00
2018-06-19T17:03:11.271Z,2012.00
2018-06-19T17:05:04.244Z,1920.00
2018-06-19T17:06:04.197Z,1888.00
2018-06-19T17:07:57.337Z,1824.00
2018-06-19T17:08:57.298Z,1784.00
2018-06-19T17:10:50.382Z,1784.00
2018-06-19T17:11:50.373Z,1856.00
2018-06-19T17:13:43.458Z,1964.00
2018-06-19T17:14:43.372Z,1992.00
2018-06-19T17:16:36.199Z,2052.00
2018-06-19T17:17:36.151Z,2080.00
2018-06-19T17:19:29.142Z,2060.00
2018-06-19T17:20:29.114Z,2048.00
2018-06-19T17:22:22.076Z,2008.00
2018-06-19T17:23:22.042Z,1996.00
2018-06-19T17:25:14.891Z,1992.00
2018-06-19T17:26:14.837Z,1968.00
2018-06-19T17:28:07.835Z,1904.00
2018-06-19T17:29:07.803Z,1888.00
2018-06-19T17:31:00.841Z,1860.00
2018-06-19T17:32:00.779Z,1828.00
2018-06-19T17:33:53.967Z,1780.00
2018-06-19T17:34:53.899Z,1752.00
2018-06-19T17:36:46.886Z,1620.00
2018-06-19T17:37:46.852Z,1576.00
2018-06-19T17:39:39.847Z,1552.00
2018-06-19T17:40:39.818Z,1532.00
2018-06-19T17:42:32.622Z,1472.00
2018-06-19T17:43:32.596Z,1436.00
2018-06-19T17:45:25.628Z,1328.00
2018-06-19T17:46:25.593Z,1268.00
2018-06-19T17:48:18.584Z,1160.00